createdAt,value
2019-04-28T00:01:54.378Z,7.40
2019-04-28T00:06:56.800Z,7.50
2019-04-28T00:12:01.577Z,7.40
2019-04-28T00:17:04.278Z,7.30
2019-04-28T00:22:16.023Z,7.30
2019-04-28T00:27:19.459Z,7.30
2019-04-28T00:32:22.038Z,7.30
2019-04-28T00:37:28.935Z,7.30
2019-04-28T00:42:31.597Z,7.40
2019-04-28T00:47:34.084Z,7.40
2019-04-28T00:52:36.643Z,7.40
2019-04-28T00:57:40.845Z,7.40
2019-04-28T01:02:44.291Z,7.30
2019-04-28T01:07:46.675Z,7.20
2019-04-28T01:12:50.872Z,7.20
2019-04-28T01:18:16.732Z,7.40
2019-04-28T01:23:20.394Z,7.50
2019-04-28T01:28:23.519Z,7.60
2019-04-28T01:33:32.654Z,7.60
2019-04-28T01:38:35.122Z,7.60
2019-04-28T01:43:37.397Z,7.70
2019-04-28T01:48:39.936Z,7.80
2019-04-28T01:53:43.375Z,7.90
2019-04-28T01:58:45.816Z,7.80
2019-04-28T02:03:50.151Z,7.70
2019-04-28T02:08:52.908Z,7.80
2019-04-28T02:13:55.298Z,7.90
2019-04-28T02:18:59.587Z,8.00
2019-04-28T02:24:21.481Z,8.10
2019-04-28T02:29:23.903Z,8.10
2019-04-28T02:34:27.510Z,8.20
2019-04-28T02:39:31.283Z,8.20
2019-04-28T02:44:35.178Z,8.30
2019-04-28T02:49:46.138Z,8.30
2019-04-28T02:54:50.739Z,8.20
2019-04-28T02:59:52.768Z,8.20
2019-04-28T03:04:55.163Z,8.20
2019-04-28T03:10:12.495Z,8.30
2019-04-28T03:15:21.815Z,8.30
2019-04-28T03:20:25.673Z,8.30
2019-04-28T03:25:53.353Z,8.40
2019-04-28T03:32:00.935Z,8.50
2019-04-28T03:36:37.456Z,8.50
2019-04-28T03:41:40.529Z,8.60
2019-04-28T03:46:51.018Z,8.60
2019-04-28T03:51:53.204Z,8.60
2019-04-28T03:56:55.685Z,8.50
2019-04-28T04:02:02.368Z,8.50
2019-04-28T04:07:02.243Z,8.40
2019-04-28T04:12:23.167Z,8.30
2019-04-28T04:17:33.603Z,8.20
2019-04-28T04:22:36.224Z,8.10
2019-04-28T04:27:40.650Z,8.10
2019-04-28T04:32:42.941Z,8.00
2019-04-28T04:37:46.150Z,8.00
2019-04-28T04:42:50.191Z,7.80
2019-04-28T04:47:52.865Z,7.80
2019-04-28T04:52:56.004Z,7.70
2019-04-28T04:58:00.586Z,7.70
2019-04-28T05:03:10.596Z,7.70
2019-04-28T05:08:15.514Z,7.60
2019-04-28T05:13:17.854Z,7.80
2019-04-28T05:18:20.791Z,8.00
2019-04-28T05:23:49.306Z,8.20
2019-04-28T05:28:53.449Z,8.50
2019-04-28T05:33:56.212Z,8.70
2019-04-28T05:39:00.138Z,9.10
2019-04-28T05:44:02.757Z,9.20
2019-04-28T05:49:22.263Z,9.00
2019-04-28T05:54:44.414Z,8.80
2019-04-28T06:00:03.785Z,8.50
2019-04-28T06:05:06.938Z,8.40
2019-04-28T06:10:10.508Z,8.30
2019-04-28T06:15:26.733Z,8.30
2019-04-28T06:20:41.506Z,8.40
2019-04-28T06:25:44.113Z,8.70
2019-04-28T06:30:46.802Z,9.30
2019-04-28T06:35:49.509Z,9.70
2019-04-28T06:40:54.653Z,10.00
2019-04-28T06:45:57.786Z,9.90
2019-04-28T06:51:00.595Z,10.00
2019-04-28T06:56:03.348Z,10.40
2019-04-28T07:01:05.879Z,10.60
2019-04-28T07:06:11.529Z,10.90
2019-04-28T07:11:14.329Z,11.00
2019-04-28T07:16:19.370Z,11.10
2019-04-28T07:21:50.099Z,11.40
2019-04-28T07:26:52.721Z,11.30
2019-04-28T07:31:55.243Z,11.20
2019-04-28T07:36:58.436Z,11.20
2019-04-28T07:47:23.552Z,11.50
2019-04-28T07:52:38.897Z,11.60
2019-04-28T07:57:42.396Z,11.60
2019-04-28T08:02:45.147Z,11.60
2019-04-28T08:07:48.020Z,11.40
2019-04-28T08:12:51.244Z,11.50
2019-04-28T08:17:53.877Z,12.10
2019-04-28T08:22:56.356Z,12.30
2019-04-28T08:28:01.533Z,12.80
2019-04-28T08:33:33.327Z,12.70
2019-04-28T08:38:37.467Z,12.40
2019-04-28T08:43:40.556Z,12.40
2019-04-28T08:48:43.156Z,12.40
2019-04-28T08:53:45.880Z,12.30
2019-04-28T08:58:49.433Z,12.20
2019-04-28T09:03:52.017Z,12.30
2019-04-28T09:08:54.537Z,13.00
2019-04-28T09:13:57.070Z,13.80
2019-04-28T09:18:59.895Z,13.30
2019-04-28T09:24:04.024Z,12.30
2019-04-28T09:29:08.051Z,12.30
2019-04-28T09:34:11.933Z,12.70
2019-04-28T09:39:23.283Z,13.40
2019-04-28T09:45:20.863Z,13.90
2019-04-28T09:50:43.351Z,14.30
2019-04-28T09:56:16.711Z,14.50
2019-04-28T10:01:19.683Z,14.40
2019-04-28T10:06:23.271Z,14.60
2019-04-28T10:11:58.182Z,14.70
2019-04-28T10:17:02.170Z,15.00
2019-04-28T10:22:13.631Z,15.90
2019-04-28T10:27:32.504Z,16.50
2019-04-28T10:32:35.270Z,16.40
2019-04-28T10:37:38.332Z,16.00
2019-04-28T10:42:41.435Z,15.70
2019-04-28T10:47:44.522Z,15.10
2019-04-28T10:52:47.077Z,14.70
2019-04-28T10:57:49.622Z,14.50
2019-04-28T11:02:52.870Z,14.30
2019-04-28T11:07:55.534Z,14.10
2019-04-28T11:12:58.067Z,14.20
2019-04-28T11:18:00.687Z,14.40
2019-04-28T11:23:05.218Z,14.60
2019-04-28T11:28:07.897Z,15.00
2019-04-28T11:33:28.859Z,15.00
2019-04-28T11:38:31.683Z,14.50
2019-04-28T11:43:34.300Z,13.90
2019-04-28T11:48:36.758Z,13.40
2019-04-28T11:53:39.264Z,12.70
2019-04-28T11:58:42.645Z,12.60
2019-04-28T12:03:49.393Z,12.80
2019-04-28T12:08:55.125Z,13.10
2019-04-28T12:14:05.709Z,13.70
2019-04-28T12:19:21.090Z,14.30
2019-04-28T12:24:23.622Z,15.00
2019-04-28T12:29:26.488Z,15.50
2019-04-28T12:34:30.177Z,15.40
2019-04-28T12:39:32.817Z,15.30
2019-04-28T12:44:35.886Z,15.10
2019-04-28T12:49:51.119Z,15.20
2019-04-28T12:54:53.676Z,15.20
2019-04-28T13:00:02.933Z,15.40
2019-04-28T13:05:11.659Z,15.50
2019-04-28T13:10:15.065Z,16.20
2019-04-28T13:15:18.609Z,16.70
2019-04-28T13:20:22.705Z,16.50
2019-04-28T13:25:25.174Z,16.40
2019-04-28T13:30:27.820Z,16.90
2019-04-28T13:35:30.351Z,17.80
2019-04-28T13:40:34.778Z,17.50
2019-04-28T13:45:37.310Z,17.60
2019-04-28T13:50:39.879Z,17.70
2019-04-28T13:55:59.968Z,18.40
2019-04-28T14:01:25.004Z,18.60
2019-04-28T14:12:13.846Z,18.10
2019-04-28T14:17:25.969Z,18.20
2019-04-28T14:22:28.499Z,20.30
2019-04-28T14:27:32.776Z,19.50
2019-04-28T14:32:35.154Z,18.60
2019-04-28T14:37:37.607Z,17.50
2019-04-28T14:42:40.363Z,16.70
2019-04-28T14:47:43.636Z,16.10
2019-04-28T14:52:50.439Z,15.70
2019-04-28T14:58:00.349Z,15.60
2019-04-28T15:14:18.625Z,18.20
2019-04-28T15:19:21.567Z,22.00
2019-04-28T15:24:24.335Z,26.10
2019-04-28T15:29:28.111Z,27.50
2019-04-28T15:34:31.867Z,28.10
2019-04-28T15:39:35.031Z,25.10
2019-04-28T15:44:38.710Z,21.80
2019-04-28T15:49:41.796Z,19.60
2019-04-28T15:54:45.197Z,18.00
2019-04-28T15:59:51.668Z,17.00
2019-04-28T16:04:55.645Z,16.50
2019-04-28T16:09:59.328Z,16.10
2019-04-28T16:15:12.709Z,15.70
2019-04-28T16:20:32.844Z,15.90
2019-04-28T16:25:45.260Z,18.40
2019-04-28T16:30:49.372Z,20.40
2019-04-28T16:35:52.518Z,19.80
2019-04-28T16:41:03.320Z,18.70
2019-04-28T16:46:07.148Z,17.80
2019-04-28T16:51:09.914Z,17.20
2019-04-28T16:56:37.211Z,16.40
2019-04-28T17:01:56.402Z,15.60
2019-04-28T17:07:03.338Z,15.10
2019-04-28T17:12:06.357Z,14.70
2019-04-28T17:17:09.111Z,14.20
2019-04-28T17:22:12.374Z,14.10
2019-04-28T17:27:14.982Z,13.80
2019-04-28T17:32:18.327Z,13.50
2019-04-28T17:37:20.908Z,13.20
2019-04-28T17:42:23.416Z,12.80
2019-04-28T17:47:26.847Z,12.50
2019-04-28T17:52:57.626Z,12.10
2019-04-28T17:58:07.165Z,11.70
2019-04-28T18:03:28.517Z,11.30
2019-04-28T18:08:32.339Z,11.00
2019-04-28T18:13:35.109Z,10.80
2019-04-28T18:19:02.403Z,10.60
2019-04-28T18:24:53.624Z,10.40
2019-04-28T18:29:49.510Z,9.70
2019-04-28T18:35:01.482Z,10.10
2019-04-28T18:51:23.412Z,9.50
2019-04-28T18:56:27.678Z,9.30
2019-04-28T19:13:07.556Z,8.00
2019-04-28T19:29:57.307Z,7.00
2019-04-28T19:35:06.128Z,6.80
2019-04-28T19:40:10.058Z,6.60
2019-04-28T19:45:19.080Z,6.40
2019-04-28T20:01:46.992Z,5.60
2019-04-28T20:06:50.645Z,5.40
2019-04-28T20:11:53.164Z,5.30
2019-04-28T20:17:39.406Z,5.20
2019-04-28T20:22:41.957Z,5.00
2019-04-28T20:28:17.622Z,4.80
2019-04-28T20:39:12.961Z,4.50
2019-04-28T20:44:43.543Z,4.40
2019-04-28T20:50:27.373Z,4.30
2019-04-28T20:55:29.883Z,4.20
2019-04-28T21:13:01.607Z,4.10
2019-04-28T21:18:05.063Z,4.30
2019-04-28T21:35:27.600Z,4.20
2019-04-28T21:40:30.116Z,4.10
2019-04-28T21:46:01.881Z,4.00
2019-04-28T21:51:04.652Z,3.80
2019-04-28T22:02:35.060Z,3.60
2019-04-28T22:07:52.891Z,3.50
2019-04-28T22:19:27.232Z,3.30
2019-04-28T23:39:36.768Z,2.80
2019-04-28T23:44:42.828Z,2.90
2019-04-28T23:49:52.917Z,2.90
